BAW461 LEMD-EGLL
Flight info
| Callsign | BAW461 |
|---|---|
| Flight time | N/A |
| Altitude | 38000 |
| Route | SIE N858 DGO DCT BLV DCT MAPAX N867 NENEM DCT PEXOD DCT YURZI DCT ERIGA DCT ARTIV DCT REVTU UP87 ROXOG |
| Aircraft | B772/H-SDE2E3FGHIJ5LORVWXY/LB1D1 |
Departure
| Time | N/A |
|---|---|
| Airport | Adolfo Suárez Madrid–Barajas Airport (LEMD) |
Arrival
| Time | 2026-05-05 21:10 |
|---|---|
| Airport | London Heathrow Airport (EGLL) |
| Time | Latitude | Longitude | Altitude | Speed | Heading |
|---|---|---|---|---|---|
| 2026-05-05 20:37 | 49.10346 | -1.81758 | 37943 ft | 478 kts | 8° |
| 2026-05-05 20:38 | 49.16907 | -1.80352 | 37947 ft | 479 kts | 8° |
| 2026-05-05 20:38 | 49.23519 | -1.78922 | 37947 ft | 480 kts | 8° |
| 2026-05-05 20:39 | 49.30089 | -1.77500 | 37949 ft | 480 kts | 8° |
| 2026-05-05 20:39 | 49.36656 | -1.75958 | 37942 ft | 479 kts | 11° |
| 2026-05-05 20:40 | 49.43134 | -1.73664 | 37946 ft | 479 kts | 14° |
| 2026-05-05 20:40 | 49.49598 | -1.71173 | 37944 ft | 479 kts | 14° |
| 2026-05-05 20:41 | 49.56067 | -1.68733 | 37944 ft | 479 kts | 13° |
| 2026-05-05 20:41 | 49.62506 | -1.66358 | 37788 ft | 480 kts | 13° |
| 2026-05-05 20:41 | 49.65764 | -1.65163 | 37265 ft | 481 kts | 13° |
| 2026-05-05 20:42 | 49.69001 | -1.63975 | 36774 ft | 475 kts | 13° |
| 2026-05-05 20:42 | 49.72200 | -1.62799 | 36304 ft | 470 kts | 14° |
| 2026-05-05 20:42 | 49.75365 | -1.61633 | 35845 ft | 465 kts | 13° |
| 2026-05-05 20:42 | 49.78496 | -1.60477 | 35374 ft | 461 kts | 13° |
| 2026-05-05 20:43 | 49.81605 | -1.59327 | 34899 ft | 457 kts | 14° |
| 2026-05-05 20:43 | 49.84684 | -1.58186 | 34434 ft | 453 kts | 14° |
| 2026-05-05 20:43 | 49.87736 | -1.57054 | 33965 ft | 450 kts | 14° |
| 2026-05-05 20:43 | 49.90704 | -1.55951 | 33437 ft | 446 kts | 14° |
| 2026-05-05 20:44 | 49.93706 | -1.54835 | 32931 ft | 442 kts | 14° |
| 2026-05-05 20:44 | 49.96681 | -1.53726 | 32452 ft | 437 kts | 13° |
| 2026-05-05 20:44 | 49.99627 | -1.52628 | 31997 ft | 433 kts | 13° |
| 2026-05-05 20:44 | 50.02529 | -1.51544 | 31531 ft | 429 kts | 14° |
| 2026-05-05 20:45 | 50.08284 | -1.49391 | 30617 ft | 422 kts | 14° |
| 2026-05-05 20:45 | 50.11130 | -1.48325 | 30176 ft | 419 kts | 14° |
| 2026-05-05 20:45 | 50.13949 | -1.47267 | 29677 ft | 416 kts | 14° |
| 2026-05-05 20:46 | 50.16751 | -1.46214 | 29159 ft | 413 kts | 14° |
| 2026-05-05 20:46 | 50.19493 | -1.45183 | 28675 ft | 409 kts | 13° |
| 2026-05-05 20:46 | 50.22256 | -1.44141 | 28195 ft | 406 kts | 13° |
| 2026-05-05 20:46 | 50.24994 | -1.43109 | 27694 ft | 404 kts | 13° |
| 2026-05-05 20:47 | 50.27719 | -1.42081 | 27207 ft | 402 kts | 13° |
| 2026-05-05 20:47 | 50.30429 | -1.41057 | 26723 ft | 399 kts | 13° |
| 2026-05-05 20:47 | 50.33123 | -1.40038 | 26257 ft | 397 kts | 13° |
| 2026-05-05 20:47 | 50.35804 | -1.39022 | 25763 ft | 395 kts | 13° |
| 2026-05-05 20:48 | 50.38472 | -1.38010 | 25308 ft | 393 kts | 13° |
| 2026-05-05 20:48 | 50.41123 | -1.37003 | 24834 ft | 392 kts | 13° |
| 2026-05-05 20:48 | 50.43732 | -1.36012 | 24363 ft | 390 kts | 13° |
| 2026-05-05 20:48 | 50.46365 | -1.35010 | 23894 ft | 389 kts | 13° |
| 2026-05-05 20:49 | 50.48992 | -1.34010 | 23389 ft | 388 kts | 13° |
| 2026-05-05 20:49 | 50.51613 | -1.33010 | 22862 ft | 386 kts | 13° |
| 2026-05-05 20:49 | 50.54219 | -1.32016 | 22354 ft | 384 kts | 13° |
| 2026-05-05 20:49 | 50.56805 | -1.31028 | 21884 ft | 382 kts | 13° |
| 2026-05-05 20:50 | 50.59376 | -1.30044 | 21405 ft | 379 kts | 13° |
| 2026-05-05 20:50 | 50.61937 | -1.29063 | 20946 ft | 377 kts | 13° |
| 2026-05-05 20:50 | 50.64444 | -1.28101 | 20494 ft | 375 kts | 13° |
| 2026-05-05 20:50 | 50.66979 | -1.27127 | 20038 ft | 374 kts | 13° |
| 2026-05-05 20:51 | 50.69503 | -1.26157 | 19588 ft | 373 kts | 13° |
| 2026-05-05 20:51 | 50.71945 | -1.24883 | 19199 ft | 369 kts | 25° |
| 2026-05-05 20:51 | 50.74157 | -1.22898 | 18958 ft | 364 kts | 33° |
| 2026-05-05 20:51 | 50.76155 | -1.20496 | 18616 ft | 358 kts | 40° |
| 2026-05-05 20:52 | 50.78033 | -1.17930 | 18193 ft | 356 kts | 41° |
| 2026-05-05 20:52 | 50.79888 | -1.15356 | 17701 ft | 354 kts | 41° |
| 2026-05-05 20:52 | 50.81705 | -1.12828 | 17241 ft | 351 kts | 41° |
| 2026-05-05 20:52 | 50.83534 | -1.10287 | 16793 ft | 348 kts | 41° |
| 2026-05-05 20:53 | 50.85345 | -1.07776 | 16353 ft | 346 kts | 41° |
| 2026-05-05 20:53 | 50.87152 | -1.05276 | 15920 ft | 343 kts | 40° |
| 2026-05-05 20:53 | 50.88944 | -1.02797 | 15485 ft | 341 kts | 40° |
| 2026-05-05 20:53 | 50.90724 | -1.00336 | 15059 ft | 339 kts | 40° |
| 2026-05-05 20:54 | 50.92450 | -0.97948 | 14620 ft | 337 kts | 40° |
| 2026-05-05 20:54 | 50.94216 | -0.95505 | 14198 ft | 336 kts | 40° |
| 2026-05-05 20:54 | 50.95969 | -0.93077 | 13752 ft | 334 kts | 40° |
| 2026-05-05 20:54 | 50.97715 | -0.90656 | 13284 ft | 333 kts | 40° |
| 2026-05-05 20:55 | 50.99433 | -0.88271 | 12832 ft | 331 kts | 40° |
| 2026-05-05 20:55 | 51.01156 | -0.85877 | 12389 ft | 329 kts | 40° |
| 2026-05-05 20:55 | 51.02868 | -0.83495 | 11939 ft | 326 kts | 40° |
| 2026-05-05 20:55 | 51.04569 | -0.81127 | 11523 ft | 324 kts | 40° |
| 2026-05-05 20:56 | 51.06258 | -0.78773 | 11102 ft | 322 kts | 40° |
| 2026-05-05 20:56 | 51.07936 | -0.76433 | 10677 ft | 320 kts | 40° |
| 2026-05-05 20:56 | 51.09601 | -0.74107 | 10329 ft | 315 kts | 40° |
| 2026-05-05 20:56 | 51.11216 | -0.71849 | 10175 ft | 302 kts | 40° |
| 2026-05-05 20:57 | 51.12732 | -0.69725 | 10031 ft | 279 kts | 39° |
| 2026-05-05 20:57 | 51.14119 | -0.67780 | 9840 ft | 262 kts | 39° |
| 2026-05-05 20:57 | 51.15459 | -0.65902 | 9531 ft | 251 kts | 39° |
| 2026-05-05 20:57 | 51.16757 | -0.64084 | 9258 ft | 249 kts | 39° |
| 2026-05-05 20:58 | 51.18092 | -0.62215 | 8972 ft | 262 kts | 39° |
| 2026-05-05 20:58 | 51.19478 | -0.60271 | 8640 ft | 267 kts | 40° |
| 2026-05-05 20:58 | 51.20864 | -0.58322 | 8313 ft | 265 kts | 40° |
| 2026-05-05 20:58 | 51.22238 | -0.56389 | 8093 ft | 260 kts | 40° |
| 2026-05-05 20:59 | 51.23560 | -0.54526 | 7960 ft | 250 kts | 40° |
| 2026-05-05 20:59 | 51.24861 | -0.52692 | 7460 ft | 250 kts | 40° |
| 2026-05-05 20:59 | 51.26106 | -0.50934 | 7241 ft | 227 kts | 40° |
| 2026-05-05 20:59 | 51.27278 | -0.49350 | 7094 ft | 215 kts | 30° |
| 2026-05-05 21:00 | 51.28673 | -0.48706 | 6887 ft | 209 kts | 356° |
| 2026-05-05 21:00 | 51.29990 | -0.49468 | 6755 ft | 210 kts | 322° |
| 2026-05-05 21:00 | 51.30822 | -0.51381 | 6612 ft | 216 kts | 288° |
| 2026-05-05 21:00 | 51.31056 | -0.53759 | 6500 ft | 218 kts | 277° |
| 2026-05-05 21:01 | 51.31159 | -0.56197 | 6368 ft | 222 kts | 276° |
| 2026-05-05 21:01 | 51.31254 | -0.58676 | 6186 ft | 225 kts | 276° |
| 2026-05-05 21:01 | 51.31344 | -0.61160 | 5918 ft | 223 kts | 276° |
| 2026-05-05 21:01 | 51.31430 | -0.63590 | 5657 ft | 221 kts | 276° |
| 2026-05-05 21:02 | 51.31521 | -0.66024 | 5394 ft | 216 kts | 280° |
| 2026-05-05 21:02 | 51.32008 | -0.68211 | 5108 ft | 207 kts | 304° |
| 2026-05-05 21:02 | 51.32790 | -0.70147 | 4995 ft | 208 kts | 306° |
| 2026-05-05 21:02 | 51.33580 | -0.72096 | 4860 ft | 210 kts | 305° |
| 2026-05-05 21:03 | 51.34382 | -0.74054 | 4728 ft | 212 kts | 306° |
| 2026-05-05 21:03 | 51.35196 | -0.76029 | 4620 ft | 213 kts | 306° |
| 2026-05-05 21:03 | 51.36054 | -0.77952 | 4447 ft | 209 kts | 319° |
| 2026-05-05 21:03 | 51.37291 | -0.78993 | 4304 ft | 204 kts | 352° |
| 2026-05-05 21:04 | 51.38688 | -0.79174 | 4204 ft | 202 kts | 360° |
| 2026-05-05 21:04 | 51.40087 | -0.79219 | 4070 ft | 198 kts | 0° |
| 2026-05-05 21:04 | 51.41423 | -0.79257 | 3956 ft | 188 kts | 0° |
| 2026-05-05 21:04 | 51.42711 | -0.79214 | 3755 ft | 183 kts | 13° |
| 2026-05-05 21:05 | 51.43765 | -0.78217 | 3559 ft | 178 kts | 48° |
| 2026-05-05 21:05 | 51.44544 | -0.76668 | 3418 ft | 181 kts | 51° |
| 2026-05-05 21:05 | 51.45344 | -0.75086 | 3186 ft | 183 kts | 51° |
| 2026-05-05 21:05 | 51.46125 | -0.73559 | 3032 ft | 175 kts | 50° |
| 2026-05-05 21:06 | 51.46900 | -0.72037 | 2831 ft | 178 kts | 52° |
| 2026-05-05 21:06 | 51.47377 | -0.70239 | 2538 ft | 178 kts | 82° |
| 2026-05-05 21:06 | 51.47511 | -0.68257 | 2321 ft | 180 kts | 82° |
| 2026-05-05 21:06 | 51.47643 | -0.66280 | 2099 ft | 173 kts | 85° |
| 2026-05-05 21:07 | 51.47685 | -0.64474 | 2031 ft | 151 kts | 88° |
| 2026-05-05 21:07 | 51.47696 | -0.62857 | 1903 ft | 138 kts | 88° |
| 2026-05-05 21:07 | 51.47702 | -0.61346 | 1734 ft | 134 kts | 89° |
| 2026-05-05 21:07 | 51.47708 | -0.59844 | 1519 ft | 134 kts | 89° |
| 2026-05-05 21:08 | 51.47713 | -0.58385 | 1344 ft | 132 kts | 88° |
| 2026-05-05 21:08 | 51.47719 | -0.56903 | 1176 ft | 133 kts | 90° |
| 2026-05-05 21:08 | 51.47723 | -0.55418 | 962 ft | 131 kts | 89° |
| 2026-05-05 21:08 | 51.47721 | -0.53963 | 784 ft | 130 kts | 88° |
| 2026-05-05 21:09 | 51.47731 | -0.52520 | 641 ft | 131 kts | 87° |
| 2026-05-05 21:09 | 51.47741 | -0.51016 | 444 ft | 138 kts | 88° |
| 2026-05-05 21:09 | 51.47749 | -0.49481 | 244 ft | 138 kts | 87° |
| 2026-05-05 21:09 | 51.47752 | -0.47948 | 96 ft | 134 kts | 87° |
| 2026-05-05 21:10 | 51.47759 | -0.46646 | 97 ft | 93 kts | 90° |
| 2026-05-05 21:10 | 51.47759 | -0.45932 | 92 ft | 37 kts | 88° |
| 2026-05-05 21:10 | 51.47761 | -0.45614 | 91 ft | 23 kts | 91° |
| 2026-05-05 21:10 | 51.47726 | -0.45479 | 93 ft | 13 kts | 155° |
| 2026-05-05 21:11 | 51.47637 | -0.45467 | 90 ft | 13 kts | 179° |
| 2026-05-05 21:11 | 51.47551 | -0.45466 | 91 ft | 12 kts | 182° |
| 2026-05-05 21:11 | 51.47508 | -0.45560 | 94 ft | 12 kts | 271° |
| 2026-05-05 21:11 | 51.47508 | -0.45695 | 94 ft | 12 kts | 274° |
| 2026-05-05 21:12 | 51.47518 | -0.45830 | 92 ft | 12 kts | 269° |
| 2026-05-05 21:12 | 51.47517 | -0.45964 | 91 ft | 12 kts | 269° |
| 2026-05-05 21:12 | 51.47516 | -0.46099 | 91 ft | 12 kts | 269° |
| 2026-05-05 21:12 | 51.47516 | -0.46235 | 91 ft | 12 kts | 270° |
| 2026-05-05 21:13 | 51.47516 | -0.46368 | 91 ft | 12 kts | 269° |
| 2026-05-05 21:13 | 51.47515 | -0.46503 | 91 ft | 12 kts | 269° |
| 2026-05-05 21:13 | 51.47514 | -0.46638 | 91 ft | 12 kts | 269° |
| 2026-05-05 21:13 | 51.47499 | -0.46753 | 94 ft | 10 kts | 248° |
| 2026-05-05 21:14 | 51.47494 | -0.46863 | 94 ft | 10 kts | 269° |
| 2026-05-05 21:14 | 51.47493 | -0.46973 | 91 ft | 10 kts | 269° |
| 2026-05-05 21:14 | 51.47492 | -0.47084 | 91 ft | 10 kts | 270° |
| 2026-05-05 21:14 | 51.47491 | -0.47194 | 91 ft | 10 kts | 269° |
| 2026-05-05 21:15 | 51.47491 | -0.47305 | 91 ft | 10 kts | 267° |
| 2026-05-05 21:15 | 51.47439 | -0.47355 | 94 ft | 10 kts | 179° |
| 2026-05-05 21:15 | 51.47370 | -0.47354 | 91 ft | 10 kts | 180° |
| 2026-05-05 21:15 | 51.47301 | -0.47354 | 91 ft | 10 kts | 179° |
| 2026-05-05 21:16 | 51.47256 | -0.47353 | 92 ft | 5 kts | 179° |
| 2026-05-05 21:16 | 51.47227 | -0.47371 | 95 ft | 5 kts | 233° |
| 2026-05-05 21:16 | 51.47224 | -0.47424 | 94 ft | 5 kts | 269° |
| 2026-05-05 21:16 | 51.47224 | -0.47477 | 94 ft | 3 kts | 269° |
| 2026-05-05 21:17 | 51.47224 | -0.47498 | 94 ft | 0 kts | 269° |